Time;durP1;ratioP1;P1;durP2;ratioP2;P2;SDS_P1;SDS_P2;PMS_P1;PMS_P2;Temp;Humidity;BMP_temperature;BMP_pressure;BME280_temperature;BME280_humidity;BME280_pressure;Samples;Min_cycle;Max_cycle;Signal;HPM_P1;HPM_P2
2021/12/30 00:00:34;;;;;;;1.55;0.60;;;11.10;99.90;;;;;;5018846;28;20038;-94
2021/12/30 00:03:00;;;;;;;2.35;0.63;;;11.10;99.90;;;;;;5036609;28;20072;-94
2021/12/30 00:05:26;;;;;;;6.82;0.95;;;11.10;99.90;;;;;;5036428;28;20049;-92
2021/12/30 00:07:52;;;;;;;3.42;0.70;;;11.10;99.90;;;;;;5036251;28;20021;-93
2021/12/30 00:10:18;;;;;;;0.85;0.40;;;11.00;99.90;;;;;;5036303;28;20531;-94
2021/12/30 00:12:44;;;;;;;3.75;0.70;;;11.00;99.90;;;;;;5018664;28;20053;-94
2021/12/30 00:15:10;;;;;;;2.33;0.63;;;11.00;99.90;;;;;;5036006;28;20021;-92
2021/12/30 00:17:36;;;;;;;3.45;0.90;;;11.00;99.90;;;;;;5018369;28;20053;-94
2021/12/30 00:20:06;;;;;;;3.95;0.90;;;11.00;99.90;;;;;;5035812;28;20032;-93
2021/12/30 00:22:32;;;;;;;4.30;0.90;;;11.00;99.90;;;;;;5035660;28;20037;-90
2021/12/30 00:24:58;;;;;;;1.52;0.60;;;10.90;99.90;;;;;;5035726;28;20112;-94
2021/12/30 00:27:24;;;;;;;1.85;0.60;;;10.90;99.90;;;;;;5017934;28;20068;-93
2021/12/30 00:29:49;;;;;;;3.88;0.73;;;10.80;99.90;;;;;;5035455;28;20026;-92
2021/12/30 00:32:15;;;;;;;2.03;0.60;;;10.80;99.90;;;;;;5036005;28;20021;-92
2021/12/30 00:34:41;;;;;;;1.33;0.60;;;10.80;99.90;;;;;;5036489;28;20476;-90
2021/12/30 00:37:07;;;;;;;0.65;0.30;;;10.90;99.90;;;;;;5030554;28;20033;-89
2021/12/30 00:39:33;;;;;;;3.00;0.65;;;10.90;99.90;;;;;;5047284;28;20025;-92
2021/12/30 00:41:59;;;;;;;1.30;0.47;;;11.00;99.90;;;;;;5019645;28;20037;-93
2021/12/30 00:44:25;;;;;;;1.00;0.40;;;10.90;99.90;;;;;;5018364;28;20485;-93
2021/12/30 00:46:51;;;;;;;1.83;0.50;;;10.90;99.90;;;;;;5017929;28;20028;-90
2021/12/30 00:49:17;;;;;;;5.80;1.08;;;11.00;99.90;;;;;;5034663;28;20071;-91
2021/12/30 00:51:43;;;;;;;2.95;0.60;;;11.00;99.90;;;;;;5017360;28;20090;-92
2021/12/30 00:54:09;;;;;;;1.63;0.60;;;10.90;99.90;;;;;;5017730;28;20025;-92
2021/12/30 00:56:35;;;;;;;3.58;0.98;;;10.90;99.90;;;;;;5017346;28;20033;-92
2021/12/30 00:59:00;;;;;;;2.00;0.50;;;10.80;99.90;;;;;;5016824;28;20021;-92
2021/12/30 01:01:26;;;;;;;3.15;0.85;;;10.70;99.90;;;;;;5034912;28;20096;-92
2021/12/30 01:03:52;;;;;;;1.25;0.65;;;10.70;99.90;;;;;;5017337;28;20476;-92
2021/12/30 01:06:18;;;;;;;2.22;0.60;;;10.60;99.90;;;;;;5017156;28;20053;-91
2021/12/30 01:08:44;;;;;;;0.55;0.40;;;10.70;99.90;;;;;;5034485;28;20029;-91
2021/12/30 01:11:12;;;;;;;1.70;0.93;;;10.60;99.90;;;;;;5034113;28;20022;-90
2021/12/30 01:13:41;;;;;;;2.58;0.70;;;10.70;99.90;;;;;;5016676;28;20082;-90
2021/12/30 01:16:17;;;;;;;2.70;0.50;;;10.80;99.90;;;;;;5034300;28;20507;-92
2021/12/30 01:21:19;;;;;;;0.70;0.50;;;10.80;99.90;;;;;;5034525;28;20064;-89
2021/12/30 01:23:45;;;;;;;2.17;0.52;;;10.80;99.90;;;;;;5034792;28;20025;-91
2021/12/30 01:26:10;;;;;;;1.70;0.60;;;10.80;99.90;;;;;;5034167;28;20025;-89
2021/12/30 01:28:37;;;;;;;2.53;0.70;;;10.70;99.90;;;;;;5016614;28;20073;-92
2021/12/30 01:31:04;;;;;;;2.03;0.75;;;10.70;99.90;;;;;;5034188;28;20033;-89
2021/12/30 01:33:29;;;;;;;3.22;1.00;;;10.70;99.90;;;;;;5034026;28;20472;-91
2021/12/30 01:35:55;;;;;;;2.10;0.85;;;10.80;99.90;;;;;;5016471;28;20079;-91
2021/12/30 01:38:21;;;;;;;2.78;0.80;;;10.70;99.90;;;;;;5035693;28;20033;-90
2021/12/30 01:40:50;;;;;;;3.08;0.70;;;10.70;99.90;;;;;;5020342;28;20397;-90
2021/12/30 01:43:17;;;;;;;3.30;0.73;;;10.60;99.90;;;;;;5037910;28;20028;-92
2021/12/30 01:45:43;;;;;;;2.42;0.80;;;10.70;99.90;;;;;;5020001;28;20030;-89
2021/12/30 01:48:09;;;;;;;2.58;0.77;;;10.80;99.90;;;;;;5019945;28;20048;-88
2021/12/30 01:50:36;;;;;;;4.60;0.90;;;10.80;99.90;;;;;;5020127;28;20112;-88
2021/12/30 01:53:03;;;;;;;4.05;0.63;;;10.80;99.90;;;;;;5037455;28;20025;-88
2021/12/30 01:55:31;;;;;;;2.67;0.60;;;10.80;99.90;;;;;;5037723;28;20056;-92
2021/12/30 01:57:57;;;;;;;3.55;1.10;;;10.80;99.90;;;;;;5019829;28;20037;-91
2021/12/30 02:00:25;;;;;;;4.03;0.85;;;10.80;99.90;;;;;;5019701;28;20034;-90
2021/12/30 02:02:51;;;;;;;4.22;0.80;;;10.70;99.90;;;;;;5037595;28;20101;-90
2021/12/30 02:05:17;;;;;;;2.67;0.70;;;10.70;99.90;;;;;;5037356;28;20041;-91
2021/12/30 02:07:43;;;;;;;5.05;0.80;;;10.70;99.90;;;;;;5019809;28;20392;-92
2021/12/30 02:10:12;;;;;;;1.70;0.63;;;10.70;99.90;;;;;;5037221;28;20025;-91
2021/12/30 02:12:39;;;;;;;1.98;0.55;;;10.60;99.90;;;;;;5019763;28;20018;-92
2021/12/30 02:15:09;;;;;;;3.67;0.82;;;10.60;99.90;;;;;;5037415;28;20025;-92
2021/12/30 02:17:34;;;;;;;5.50;0.68;;;10.50;99.90;;;;;;5037381;28;20017;-91
2021/12/30 02:20:07;;;;;;;1.23;0.60;;;10.60;99.90;;;;;;5037457;28;20429;-91
2021/12/30 02:22:33;;;;;;;2.30;0.75;;;10.50;99.90;;;;;;5037189;28;20074;-91
2021/12/30 02:24:59;;;;;;;1.67;0.70;;;10.50;99.90;;;;;;5019394;28;20036;-91
2021/12/30 02:27:27;;;;;;;2.33;0.60;;;10.50;99.90;;;;;;5037188;28;20052;-91
2021/12/30 02:29:53;;;;;;;2.17;0.63;;;10.50;99.90;;;;;;5037018;28;20029;-91
2021/12/30 02:32:21;;;;;;;3.08;0.45;;;10.50;99.90;;;;;;5019481;28;20028;-92
2021/12/30 02:34:48;;;;;;;0.95;0.60;;;10.50;99.90;;;;;;5019511;28;20032;-91
2021/12/30 02:37:19;;;;;;;2.17;0.50;;;10.50;99.90;;;;;;5037069;28;20030;-91
2021/12/30 02:39:51;;;;;;;3.55;0.55;;;10.50;99.90;;;;;;5037163;28;20477;-92
2021/12/30 02:42:23;;;;;;;5.82;0.90;;;10.50;99.90;;;;;;5037096;28;20026;-91
2021/12/30 02:44:49;;;;;;;2.25;0.60;;;10.50;99.90;;;;;;5040388;28;20056;-90
2021/12/30 02:47:16;;;;;;;2.42;0.50;;;10.60;99.90;;;;;;5036562;28;20030;-91
2021/12/30 02:49:42;;;;;;;2.88;0.60;;;10.60;99.90;;;;;;5032655;28;20060;-91
2021/12/30 02:52:09;;;;;;;2.80;0.50;;;10.70;99.90;;;;;;5020142;28;20028;-91
2021/12/30 02:54:37;;;;;;;4.40;0.60;;;10.70;99.90;;;;;;5019091;28;20484;-91
2021/12/30 02:57:03;;;;;;;3.30;0.55;;;10.70;99.90;;;;;;5036412;28;20457;-91
2021/12/30 02:59:28;;;;;;;2.58;0.47;;;10.80;99.90;;;;;;5036360;28;20030;-91
2021/12/30 03:01:55;;;;;;;1.85;0.45;;;10.80;99.90;;;;;;5036588;28;20049;-91
2021/12/30 03:04:20;;;;;;;3.83;0.50;;;10.80;99.90;;;;;;5018763;28;20033;-91
2021/12/30 03:06:49;;;;;;;2.63;0.47;;;10.80;99.90;;;;;;5018177;28;20042;-91
2021/12/30 03:09:14;;;;;;;1.38;0.50;;;10.70;99.90;;;;;;5018266;28;20032;-91
2021/12/30 03:11:40;;;;;;;1.08;0.32;;;10.80;99.90;;;;;;5036280;28;20025;-91
2021/12/30 03:14:06;;;;;;;1.77;0.50;;;10.80;99.90;;;;;;5018351;28;20021;-91
2021/12/30 03:16:35;;;;;;;3.10;0.50;;;10.80;99.90;;;;;;5018574;28;20037;-90
2021/12/30 03:19:01;;;;;;;1.90;0.60;;;10.90;99.90;;;;;;5036103;28;20100;-90
2021/12/30 03:21:28;;;;;;;5.28;0.70;;;10.90;99.90;;;;;;5035952;28;20431;-91
2021/12/30 03:23:56;;;;;;;1.40;0.73;;;10.90;99.90;;;;;;5035805;28;20109;-90
2021/12/30 03:26:22;;;;;;;3.38;0.70;;;10.90;99.90;;;;;;5035871;28;20048;-91
2021/12/30 03:28:49;;;;;;;2.88;0.70;;;10.90;99.90;;;;;;5017937;28;20137;-90
2021/12/30 03:31:18;;;;;;;1.75;0.52;;;10.90;99.90;;;;;;5035708;28;20023;-91
2021/12/30 03:33:45;;;;;;;3.30;0.70;;;10.90;99.90;;;;;;5035652;28;20486;-91
2021/12/30 03:36:11;;;;;;;5.65;0.80;;;10.80;99.90;;;;;;5017994;28;20047;-91
2021/12/30 03:38:45;;;;;;;2.00;0.80;;;10.70;99.90;;;;;;5017831;28;20093;-91
2021/12/30 03:41:13;;;;;;;2.50;0.80;;;10.70;99.90;;;;;;5035664;28;20030;-91
2021/12/30 03:43:39;;;;;;;2.58;0.73;;;10.70;99.90;;;;;;5035354;28;20029;-91
2021/12/30 03:46:07;;;;;;;2.15;0.75;;;10.70;99.90;;;;;;5017649;28;20033;-91
2021/12/30 03:48:35;;;;;;;5.78;0.93;;;10.70;99.90;;;;;;5017562;28;20081;-91
2021/12/30 03:51:06;;;;;;;6.43;1.02;;;10.70;99.90;;;;;;5017652;28;20495;-91
2021/12/30 03:53:38;;;;;;;1.38;0.60;;;10.60;99.90;;;;;;5035162;28;20014;-91
2021/12/30 03:56:09;;;;;;;3.03;0.70;;;10.60;99.90;;;;;;5035680;28;20556;-91
2021/12/30 03:58:36;;;;;;;4.28;0.63;;;10.60;99.90;;;;;;5017496;28;20469;-91
2021/12/30 04:01:03;;;;;;;1.60;0.60;;;10.70;99.90;;;;;;5017467;28;20096;-91
2021/12/30 04:03:29;;;;;;;1.42;0.50;;;10.70;99.90;;;;;;5017712;28;20036;-91
2021/12/30 04:05:55;;;;;;;1.77;0.50;;;10.70;99.90;;;;;;5017418;28;20045;-90
2021/12/30 04:08:21;;;;;;;3.88;0.50;;;10.70;99.90;;;;;;5017225;28;20121;-91
2021/12/30 04:10:47;;;;;;;2.85;0.43;;;10.80;99.90;;;;;;5034987;28;20057;-92
2021/12/30 04:13:14;;;;;;;2.63;0.60;;;10.80;99.90;;;;;;5033687;28;20060;-91
2021/12/30 04:15:39;;;;;;;3.10;0.55;;;10.70;99.90;;;;;;5017402;28;20044;-91
2021/12/30 04:18:05;;;;;;;1.38;0.30;;;10.70;99.90;;;;;;5017401;28;20528;-91
2021/12/30 04:20:31;;;;;;;1.27;0.40;;;10.80;99.90;;;;;;5034819;28;20099;-91
2021/12/30 04:22:57;;;;;;;1.65;0.32;;;10.80;99.90;;;;;;5016836;28;20025;-91
2021/12/30 04:25:23;;;;;;;4.47;0.47;;;10.80;99.90;;;;;;5016970;28;20453;-90
2021/12/30 04:27:49;;;;;;;3.65;0.50;;;10.80;99.90;;;;;;5034629;28;20080;-91
2021/12/30 04:30:17;;;;;;;1.25;0.40;;;10.80;99.90;;;;;;5034478;28;20049;-90
2021/12/30 04:32:44;;;;;;;0.82;0.20;;;10.70;99.90;;;;;;5016826;28;20022;-90
2021/12/30 04:35:11;;;;;;;1.80;0.40;;;10.80;99.90;;;;;;5034463;28;20018;-90
2021/12/30 04:37:37;;;;;;;0.30;0.30;;;10.80;99.90;;;;;;5034364;28;20121;-91
2021/12/30 04:40:05;;;;;;;0.85;0.30;;;10.80;99.90;;;;;;5016625;28;20026;-90
2021/12/30 04:42:31;;;;;;;0.50;0.20;;;10.80;99.90;;;;;;5034151;28;20029;-91
2021/12/30 04:44:57;;;;;;;1.20;0.40;;;10.80;99.90;;;;;;5034263;28;20457;-91
2021/12/30 04:47:22;;;;;;;1.75;0.30;;;10.80;99.90;;;;;;5016626;28;20056;-90
2021/12/30 04:49:49;;;;;;;1.42;0.40;;;10.80;99.90;;;;;;5034363;28;20021;-91
2021/12/30 04:52:15;;;;;;;1.20;0.38;;;10.80;99.90;;;;;;5016762;28;20018;-91
2021/12/30 04:54:41;;;;;;;1.20;0.40;;;10.80;99.90;;;;;;5019701;28;20024;-89
2021/12/30 04:57:07;;;;;;;1.02;0.40;;;10.70;99.90;;;;;;5033082;28;20031;-90
2021/12/30 04:59:33;;;;;;;0.50;0.40;;;10.70;99.90;;;;;;5028205;28;20107;-90
2021/12/30 05:01:59;;;;;;;1.45;0.57;;;10.70;99.90;;;;;;5034946;28;20044;-90
2021/12/30 05:04:25;;;;;;;2.80;0.50;;;10.60;99.90;;;;;;5016987;28;20032;-90
2021/12/30 05:06:51;;;;;;;2.45;0.30;;;10.60;99.90;;;;;;5033865;28;20410;-90
2021/12/30 05:09:16;;;;;;;0.38;0.38;;;10.70;99.90;;;;;;5033412;28;20022;-90
2021/12/30 05:11:42;;;;;;;2.60;0.47;;;10.70;99.90;;;;;;5033938;28;20028;-90
2021/12/30 05:14:12;;;;;;;2.22;0.50;;;10.60;99.90;;;;;;5014959;28;20443;-90
2021/12/30 05:16:38;;;;;;;3.35;0.75;;;10.60;99.90;;;;;;5033212;28;20076;-90
2021/12/30 05:19:05;;;;;;;1.33;0.38;;;10.60;99.90;;;;;;5033217;28;20031;-90
2021/12/30 05:21:31;;;;;;;1.58;0.40;;;10.60;99.90;;;;;;5033433;28;20040;-90
2021/12/30 05:23:57;;;;;;;0.85;0.40;;;10.70;99.90;;;;;;5033089;28;20026;-90
2021/12/30 05:26:27;;;;;;;0.85;0.40;;;10.70;99.90;;;;;;5033352;28;20086;-90
2021/12/30 05:28:57;;;;;;;1.23;0.30;;;10.70;99.90;;;;;;5015342;28;20060;-90
2021/12/30 05:31:23;;;;;;;1.38;0.47;;;10.80;99.90;;;;;;5033001;28;20029;-90
2021/12/30 05:33:49;;;;;;;0.30;0.30;;;10.80;99.90;;;;;;5033150;28;20052;-90
2021/12/30 05:36:15;;;;;;;0.68;0.50;;;10.80;99.90;;;;;;5033104;28;20021;-90
2021/12/30 05:38:40;;;;;;;0.17;0.17;;;10.90;99.90;;;;;;5015412;28;20120;-90
2021/12/30 05:41:06;;;;;;;0.20;0.20;;;10.90;99.90;;;;;;5015542;28;20544;-90
2021/12/30 05:43:32;;;;;;;1.27;0.30;;;10.90;99.90;;;;;;5015304;28;20107;-90
2021/12/30 05:45:58;;;;;;;1.92;0.40;;;10.90;99.90;;;;;;5015332;28;20087;-89
2021/12/30 05:48:23;;;;;;;0.35;0.20;;;11.00;99.90;;;;;;5032858;28;20029;-90
2021/12/30 05:50:50;;;;;;;0.47;0.13;;;11.00;99.90;;;;;;5033297;28;20100;-90
2021/12/30 05:53:16;;;;;;;0.30;0.20;;;11.00;99.90;;;;;;5032786;28;20477;-90
2021/12/30 05:55:42;;;;;;;2.33;0.40;;;11.00;99.90;;;;;;5033072;28;20022;-90
2021/12/30 05:58:07;;;;;;;0.35;0.10;;;11.10;99.90;;;;;;5032858;28;20026;-89
2021/12/30 06:00:34;;;;;;;0.80;0.55;;;11.10;99.90;;;;;;5033187;28;20435;-89
2021/12/30 06:03:00;;;;;;;1.17;0.55;;;11.10;99.90;;;;;;5032816;28;20425;-90
2021/12/30 06:05:26;;;;;;;4.53;0.52;;;11.10;99.90;;;;;;5011694;28;20072;-91
2021/12/30 06:07:52;;;;;;;0.73;0.20;;;11.10;99.90;;;;;;5013286;28;20034;-90
2021/12/30 06:10:18;;;;;;;0.30;0.28;;;11.10;99.90;;;;;;5011846;28;20117;-90
2021/12/30 06:12:45;;;;;;;0.98;0.20;;;11.20;99.90;;;;;;5013127;28;20385;-91
2021/12/30 06:15:12;;;;;;;0.80;0.15;;;11.20;99.90;;;;;;5013392;28;20044;-93
2021/12/30 06:17:38;;;;;;;0.30;0.20;;;11.20;99.90;;;;;;5012572;28;20406;-93
2021/12/30 06:20:06;;;;;;;8.98;3.70;;;11.20;99.90;;;;;;5012632;28;20033;-93
2021/12/30 06:22:32;;;;;;;0.47;0.32;;;11.10;99.90;;;;;;5013605;28;20030;-90
2021/12/30 06:24:58;;;;;;;1.25;0.50;;;11.10;99.90;;;;;;5014628;28;20026;-93
2021/12/30 06:27:23;;;;;;;0.30;0.20;;;11.10;99.90;;;;;;5015834;28;20124;-92
2021/12/30 06:29:49;;;;;;;0.28;0.20;;;11.10;99.90;;;;;;5016094;28;20108;-92
2021/12/30 06:32:15;;;;;;;0.20;0.17;;;11.10;99.90;;;;;;5015947;28;20117;-92
2021/12/30 06:34:41;;;;;;;1.27;0.20;;;11.10;99.90;;;;;;5015655;28;20022;-92
2021/12/30 06:37:07;;;;;;;0.82;0.13;;;11.00;99.90;;;;;;5016669;28;20025;-90
2021/12/30 06:39:32;;;;;;;1.10;0.25;;;11.10;99.90;;;;;;5015622;28;20025;-93
2021/12/30 06:41:58;;;;;;;1.48;0.10;;;11.10;99.90;;;;;;5015535;28;20022;-92
2021/12/30 06:44:24;;;;;;;0.57;0.20;;;11.10;99.90;;;;;;5015387;28;20025;-92
2021/12/30 06:46:57;;;;;;;0.80;0.28;;;11.00;99.90;;;;;;5016624;28;20022;-92
2021/12/30 06:49:23;;;;;;;0.30;0.30;;;11.10;99.90;;;;;;5015146;28;20028;-90
2021/12/30 06:51:49;;;;;;;2.03;0.30;;;11.10;99.90;;;;;;5015021;28;20527;-91
2021/12/30 06:54:15;;;;;;;0.47;0.25;;;11.00;99.90;;;;;;5014897;28;20029;-91
2021/12/30 06:56:41;;;;;;;0.93;0.30;;;11.10;99.90;;;;;;5016454;28;20030;-90
2021/12/30 06:59:07;;;;;;;0.55;0.40;;;11.10;99.90;;;;;;5016039;28;20029;-91
2021/12/30 07:01:33;;;;;;;0.77;0.43;;;11.10;99.90;;;;;;5018722;28;20037;-91
2021/12/30 07:03:58;;;;;;;1.00;0.35;;;11.10;99.90;;;;;;5031483;28;20025;-90
2021/12/30 07:06:24;;;;;;;1.40;0.65;;;11.10;99.90;;;;;;5040232;28;20072;-90
2021/12/30 07:08:50;;;;;;;0.52;0.40;;;11.10;99.90;;;;;;5018692;28;20029;-90
2021/12/30 07:11:16;;;;;;;0.38;0.10;;;11.10;99.90;;;;;;5019074;28;20586;-92
2021/12/30 07:13:42;;;;;;;3.33;0.47;;;11.00;99.90;;;;;;5036391;28;20057;-92
2021/12/30 07:16:07;;;;;;;1.10;0.40;;;11.10;99.90;;;;;;5035738;28;20045;-91
2021/12/30 07:18:33;;;;;;;4.53;2.28;;;11.10;99.90;;;;;;5017945;28;20544;-91
2021/12/30 07:20:59;;;;;;;1.38;0.50;;;11.10;99.90;;;;;;5035509;28;20029;-91
2021/12/30 07:23:24;;;;;;;3.85;2.45;;;11.10;99.90;;;;;;5035539;28;20101;-90
2021/12/30 07:25:52;;;;;;;0.88;0.70;;;11.10;99.90;;;;;;5035377;28;20498;-91
2021/12/30 07:28:18;;;;;;;0.30;0.30;;;11.10;99.90;;;;;;5017331;28;20080;-91
2021/12/30 07:30:44;;;;;;;0.50;0.30;;;11.10;99.90;;;;;;5017735;28;20063;-91
2021/12/30 07:33:10;;;;;;;0.43;0.15;;;11.10;99.90;;;;;;5035356;28;20173;-92
2021/12/30 07:35:36;;;;;;;0.45;0.30;;;11.10;99.90;;;;;;5016861;28;20032;-91
2021/12/30 07:38:02;;;;;;;1.42;0.30;;;11.20;99.90;;;;;;5017478;28;20041;-91
2021/12/30 07:40:28;;;;;;;0.57;0.30;;;11.10;99.90;;;;;;5017512;28;20029;-90
2021/12/30 07:42:54;;;;;;;1.38;0.30;;;11.20;99.90;;;;;;5034832;28;20030;-91
2021/12/30 07:45:20;;;;;;;0.50;0.40;;;11.20;99.90;;;;;;5034848;28;20044;-90
2021/12/30 07:47:46;;;;;;;1.10;0.20;;;11.20;99.90;;;;;;5016917;28;20374;-89
2021/12/30 07:50:13;;;;;;;2.72;0.40;;;11.20;99.90;;;;;;5034599;28;20045;-87
2021/12/30 07:52:40;;;;;;;1.60;0.63;;;11.20;99.90;;;;;;5017002;28;20025;-91
2021/12/30 07:55:07;;;;;;;1.02;0.28;;;11.20;99.90;;;;;;5034524;28;20022;-90
2021/12/30 07:57:33;;;;;;;1.55;0.60;;;11.30;99.90;;;;;;5034544;28;20026;-90
2021/12/30 07:59:59;;;;;;;1.83;0.80;;;11.30;99.90;;;;;;5034907;28;20037;-91
2021/12/30 08:02:25;;;;;;;1.42;0.80;;;11.30;99.90;;;;;;5016895;28;20049;-91
2021/12/30 08:04:51;;;;;;;2.05;0.63;;;11.30;99.90;;;;;;5016602;28;20033;-91
2021/12/30 08:07:21;;;;;;;0.85;0.73;;;11.30;99.90;;;;;;5016331;28;20045;-91
2021/12/30 08:09:47;;;;;;;0.77;0.65;;;11.30;99.90;;;;;;5034701;28;20525;-90
2021/12/30 08:12:13;;;;;;;0.98;0.43;;;11.30;99.90;;;;;;5016539;28;20129;-91
2021/12/30 08:14:38;;;;;;;0.65;0.38;;;11.40;99.90;;;;;;5017344;28;20060;-90
2021/12/30 08:17:04;;;;;;;3.75;0.65;;;11.40;99.90;;;;;;5016602;28;20542;-90
2021/12/30 08:19:30;;;;;;;2.53;0.30;;;11.40;99.90;;;;;;5033916;28;20025;-90
2021/12/30 08:21:56;;;;;;;0.80;0.50;;;11.50;99.90;;;;;;5016211;28;20029;-91
2021/12/30 08:24:22;;;;;;;0.65;0.40;;;11.60;99.90;;;;;;5034178;28;20396;-89
2021/12/30 08:26:50;;;;;;;0.28;0.20;;;11.60;99.90;;;;;;5016314;28;20029;-91
2021/12/30 08:29:16;;;;;;;1.88;0.38;;;11.60;99.90;;;;;;5033689;28;20029;-89
2021/12/30 08:31:42;;;;;;;1.35;0.50;;;11.70;99.90;;;;;;5034137;28;20021;-88
2021/12/30 08:34:08;;;;;;;0.68;0.50;;;11.80;99.90;;;;;;5015983;28;20072;-89
2021/12/30 08:36:34;;;;;;;0.75;0.50;;;11.80;99.90;;;;;;5015960;28;20030;-90
2021/12/30 08:39:00;;;;;;;0.75;0.43;;;11.80;99.90;;;;;;5032362;28;20037;-89
2021/12/30 08:41:27;;;;;;;2.83;0.70;;;11.80;99.90;;;;;;5033572;28;20033;-89
2021/12/30 08:43:53;;;;;;;0.70;0.57;;;11.70;99.90;;;;;;5033495;28;20021;-90
2021/12/30 08:46:19;;;;;;;1.00;0.60;;;11.80;99.90;;;;;;5015790;28;20033;-90
2021/12/30 08:48:45;;;;;;;1.92;0.73;;;11.80;99.90;;;;;;5014816;28;20029;-90
2021/12/30 08:51:10;;;;;;;0.90;0.60;;;11.80;99.90;;;;;;5015705;28;20018;-89
2021/12/30 08:53:41;;;;;;;2.33;0.70;;;11.90;99.90;;;;;;5015857;28;20030;-90
2021/12/30 08:56:14;;;;;;;1.67;1.00;;;11.90;99.90;;;;;;5015870;28;20017;-90
2021/12/30 08:58:40;;;;;;;1.23;0.90;;;12.00;99.90;;;;;;5033338;28;20104;-90
2021/12/30 09:01:06;;;;;;;1.15;0.80;;;12.10;99.90;;;;;;5015648;28;20064;-90
2021/12/30 09:03:32;;;;;;;4.82;0.80;;;12.10;99.90;;;;;;5033554;28;20425;-90
2021/12/30 09:05:58;;;;;;;0.88;0.73;;;12.00;99.90;;;;;;5015843;28;20493;-90
2021/12/30 09:08:24;;;;;;;2.50;1.00;;;12.00;99.90;;;;;;5016948;28;20034;-90
2021/12/30 09:10:50;;;;;;;3.42;1.08;;;12.00;99.90;;;;;;5017035;28;20036;-90
2021/12/30 09:13:18;;;;;;;2.10;0.80;;;12.10;99.90;;;;;;5015364;28;20444;-88
2021/12/30 09:15:45;;;;;;;2.15;0.80;;;12.10;99.90;;;;;;5015380;28;20067;-90
2021/12/30 09:18:11;;;;;;;0.40;0.40;;;12.20;99.90;;;;;;5033230;28;20029;-92
2021/12/30 09:20:38;;;;;;;0.60;0.40;;;12.30;99.90;;;;;;5015687;28;20026;-93
2021/12/30 09:23:05;;;;;;;1.55;0.60;;;12.50;99.90;;;;;;5033371;28;20076;-88
2021/12/30 09:25:31;;;;;;;3.72;1.00;;;12.60;99.90;;;;;;5033436;28;20485;-91
2021/12/30 09:27:57;;;;;;;0.77;0.40;;;12.90;99.90;;;;;;5033462;28;20028;-92
2021/12/30 09:30:26;;;;;;;0.47;0.30;;;12.90;99.90;;;;;;5033144;28;20358;-87
2021/12/30 09:32:54;;;;;;;0.95;0.35;;;13.00;99.90;;;;;;5033164;28;20499;-89
2021/12/30 09:35:20;;;;;;;1.05;0.30;;;13.00;99.90;;;;;;5015054;28;20033;-89
2021/12/30 09:37:46;;;;;;;0.77;0.60;;;13.00;99.90;;;;;;5033166;28;20025;-92
2021/12/30 09:40:14;;;;;;;1.02;0.30;;;13.10;99.90;;;;;;5015840;28;20452;-91
2021/12/30 09:42:44;;;;;;;1.02;0.30;;;13.20;99.90;;;;;;5015405;28;20068;-89
2021/12/30 09:45:11;;;;;;;0.30;0.20;;;13.30;99.90;;;;;;5016225;28;20022;-92
2021/12/30 09:47:46;;;;;;;1.75;0.20;;;13.40;99.90;;;;;;5015402;28;20076;-92
2021/12/30 09:50:12;;;;;;;0.68;0.20;;;13.50;99.90;;;;;;5033079;28;20025;-92
2021/12/30 09:52:38;;;;;;;0.15;0.15;;;13.60;99.90;;;;;;5015447;28;20022;-92
2021/12/30 09:55:04;;;;;;;0.47;0.20;;;13.60;99.90;;;;;;5033060;28;20025;-90
2021/12/30 09:57:30;;;;;;;0.43;0.20;;;13.60;99.90;;;;;;5015393;28;20026;-93
2021/12/30 09:59:56;;;;;;;0.50;0.30;;;13.60;99.90;;;;;;5018048;28;20481;-90
2021/12/30 10:02:22;;;;;;;0.65;0.50;;;13.60;99.90;;;;;;5020112;28;20040;-91
2021/12/30 10:05:03;;;;;;;0.30;0.20;;;13.60;99.90;;;;;;5036980;28;20029;-91
2021/12/30 10:07:29;;;;;;;0.47;0.10;;;13.60;99.90;;;;;;5019497;28;20057;-91
2021/12/30 10:10:00;;;;;;;1.02;0.10;;;13.70;99.90;;;;;;5019179;28;20091;-91
2021/12/30 10:12:39;;;;;;;1.85;0.20;;;13.70;99.90;;;;;;5037283;28;20040;-91
2021/12/30 10:15:05;;;;;;;0.30;0.22;;;13.80;99.90;;;;;;5037531;28;20021;-91
2021/12/30 10:17:31;;;;;;;0.60;0.28;;;13.80;99.90;;;;;;5037224;28;20033;-91
2021/12/30 10:20:21;;;;;;;0.60;0.20;;;13.80;99.90;;;;;;5036777;28;20029;-91
2021/12/30 10:22:47;;;;;;;1.63;0.20;;;13.80;99.90;;;;;;5019117;28;20064;-91
2021/12/30 10:25:28;;;;;;;0.95;0.40;;;14.00;99.90;;;;;;5019404;28;20052;-92
2021/12/30 10:27:55;;;;;;;0.55;0.10;;;14.10;99.90;;;;;;5019530;28;20009;-91
2021/12/30 10:30:34;;;;;;;1.95;0.20;;;14.10;99.90;;;;;;5019132;28;20407;-88
2021/12/30 10:33:18;;;;;;;0.25;0.10;;;14.20;99.90;;;;;;5036558;28;20018;-91
2021/12/30 10:35:44;;;;;;;3.13;0.30;;;14.10;99.90;;;;;;5019755;28;20472;-92
2021/12/30 10:38:11;;;;;;;0.43;0.13;;;14.10;99.90;;;;;;5019079;28;20087;-87
2021/12/30 10:40:40;;;;;;;0.40;0.20;;;14.10;99.90;;;;;;5036265;28;20079;-92
2021/12/30 10:43:20;;;;;;;0.10;0.00;;;14.10;99.90;;;;;;5036615;28;20026;-90
2021/12/30 10:46:06;;;;;;;0.32;0.22;;;14.30;99.90;;;;;;5018460;28;20025;-89
2021/12/30 10:48:33;;;;;;;0.17;0.10;;;14.50;99.90;;;;;;5035619;28;20114;-90
2021/12/30 10:51:13;;;;;;;5.60;3.00;;;14.80;99.90;;;;;;5018607;28;20202;-90
2021/12/30 10:53:40;;;;;;;1.77;0.20;;;14.80;99.90;;;;;;5018142;28;20029;-85
2021/12/30 10:56:27;;;;;;;1.95;0.90;;;14.80;99.90;;;;;;5036277;28;20469;-85
2021/12/30 10:58:55;;;;;;;9.68;5.97;;;15.10;99.90;;;;;;5018059;28;20396;-86
2021/12/30 11:01:24;;;;;;;5.70;3.17;;;15.50;99.90;;;;;;5018112;28;20034;-85
2021/12/30 11:04:00;;;;;;;2.05;0.75;;;15.50;99.90;;;;;;5018213;28;20120;-85
2021/12/30 11:06:28;;;;;;;2.85;0.80;;;15.60;99.90;;;;;;5035604;28;20111;-85
2021/12/30 11:09:11;;;;;;;5.25;3.35;;;15.70;99.90;;;;;;5017834;28;20437;-86
2021/12/30 11:11:42;;;;;;;0.25;0.20;;;16.10;99.90;;;;;;5034770;28;20541;-86
2021/12/30 11:14:14;;;;;;;3.35;0.30;;;16.10;99.90;;;;;;5035492;28;20033;-86
2021/12/30 11:17:12;;;;;;;1.25;0.28;;;15.90;99.90;;;;;;5017891;28;20076;-86
2021/12/30 11:19:46;;;;;;;0.45;0.20;;;15.90;99.90;;;;;;5018163;28;20108;-87
2021/12/30 11:22:18;;;;;;;1.50;0.55;;;16.00;99.90;;;;;;5035596;28;20021;-87
2021/12/30 11:24:45;;;;;;;0.60;0.30;;;15.90;99.90;;;;;;5035885;28;20477;-86
2021/12/30 11:27:14;;;;;;;0.70;0.38;;;15.80;99.90;;;;;;5017479;28;20104;-87
2021/12/30 11:29:43;;;;;;;0.32;0.20;;;15.60;99.90;;;;;;5017560;28;20040;-86
2021/12/30 11:32:09;;;;;;;0.85;0.10;;;15.60;99.90;;;;;;5017500;28;20029;-86
2021/12/30 11:34:36;;;;;;;0.65;0.17;;;15.50;99.90;;;;;;5017613;28;20025;-87
2021/12/30 11:37:03;;;;;;;0.10;0.10;;;15.50;99.90;;;;;;5035596;28;20464;-86
2021/12/30 11:39:29;;;;;;;3.53;2.10;;;15.50;99.90;;;;;;5017480;28;20018;-87
2021/12/30 11:42:03;;;;;;;11.13;10.02;;;15.90;99.90;;;;;;5017331;28;20021;-86
2021/12/30 11:44:35;;;;;;;6.53;3.90;;;15.70;99.90;;;;;;5035152;28;20524;-86
2021/12/30 11:47:02;;;;;;;0.52;0.40;;;15.70;99.90;;;;;;5035168;28;20025;-86
2021/12/30 11:49:56;;;;;;;0.65;0.50;;;15.40;99.90;;;;;;5017122;28;20048;-86
2021/12/30 11:52:52;;;;;;;0.30;0.10;;;15.20;99.90;;;;;;5035324;28;20064;-87
2021/12/30 11:55:41;;;;;;;1.25;0.30;;;15.00;99.90;;;;;;5035036;28;20104;-87
2021/12/30 11:58:41;;;;;;;1.13;0.25;;;14.90;99.90;;;;;;5017360;28;20029;-86
2021/12/30 12:01:13;;;;;;;1.20;0.80;;;14.90;99.90;;;;;;5034876;28;20508;-86
2021/12/30 12:03:53;;;;;;;3.83;1.65;;;14.90;99.90;;;;;;5034657;28;20035;-86
2021/12/30 12:06:28;;;;;;;0.40;0.20;;;15.00;99.90;;;;;;5016750;28;20061;-86
2021/12/30 12:09:00;;;;;;;1.85;0.30;;;15.00;99.90;;;;;;5016801;28;20579;-86
2021/12/30 12:11:49;;;;;;;1.05;0.30;;;14.90;99.90;;;;;;5034524;28;20389;-87
2021/12/30 12:14:31;;;;;;;0.30;0.20;;;14.90;99.90;;;;;;5016488;28;20060;-87
2021/12/30 12:17:04;;;;;;;1.00;0.40;;;14.80;99.90;;;;;;5034895;28;20030;-86
2021/12/30 12:19:36;;;;;;;0.60;0.17;;;14.70;99.90;;;;;;5016788;28;20017;-87
2021/12/30 12:22:05;;;;;;;0.85;0.40;;;14.70;99.90;;;;;;5016891;28;20473;-87
2021/12/30 12:24:34;;;;;;;0.13;0.13;;;14.70;99.90;;;;;;5034371;28;20022;-86
2021/12/30 12:27:07;;;;;;;0.47;0.20;;;14.50;99.90;;;;;;5016287;28;20028;-86
2021/12/30 12:29:42;;;;;;;0.60;0.20;;;14.30;99.90;;;;;;5016627;28;20500;-86
2021/12/30 12:32:11;;;;;;;0.20;0.10;;;14.10;99.90;;;;;;5034087;28;20477;-86
2021/12/30 12:34:53;;;;;;;4.20;0.40;;;14.10;99.90;;;;;;5016694;28;20021;-84
2021/12/30 12:37:37;;;;;;;0.50;0.30;;;13.90;99.90;;;;;;5034108;28;20025;-86
2021/12/30 12:40:10;;;;;;;4.15;0.63;;;13.90;99.90;;;;;;5016293;28;20108;-86
2021/12/30 12:42:51;;;;;;;0.60;0.20;;;13.90;99.90;;;;;;5034130;28;20075;-85
2021/12/30 12:45:49;;;;;;;1.58;0.40;;;13.90;99.90;;;;;;5016269;28;20484;-86
2021/12/30 12:48:18;;;;;;;1.02;0.50;;;13.80;99.90;;;;;;5015717;28;20038;-86
2021/12/30 12:50:49;;;;;;;1.45;0.35;;;13.90;99.90;;;;;;5016267;28;20049;-86
2021/12/30 12:53:24;;;;;;;1.13;0.15;;;14.00;99.90;;;;;;5015933;28;20091;-86
2021/12/30 12:55:57;;;;;;;1.10;0.45;;;14.00;99.90;;;;;;5016014;28;20538;-86